sensor_id;sensor_type;location;lat;lon;timestamp;P1;durP1;ratioP1;P2;durP2;ratioP2
21000;SDS011;10658;50.920;12.238;2023-03-07T00:01:45;21.42;;;11.27;;
21000;SDS011;10658;50.920;12.238;2023-03-07T00:05:46;22.02;;;10.70;;
21000;SDS011;10658;50.920;12.238;2023-03-07T00:09:48;20.52;;;10.40;;
21000;SDS011;10658;50.920;12.238;2023-03-07T00:14:10;22.23;;;12.25;;
21000;SDS011;10658;50.920;12.238;2023-03-07T00:18:12;21.27;;;10.40;;
21000;SDS011;10658;50.920;12.238;2023-03-07T00:22:33;20.52;;;9.75;;
21000;SDS011;10658;50.920;12.238;2023-03-07T00:26:36;22.60;;;11.75;;
21000;SDS011;10658;50.920;12.238;2023-03-07T00:30:39;19.17;;;11.32;;
21000;SDS011;10658;50.920;12.238;2023-03-07T00:34:43;18.50;;;10.90;;
21000;SDS011;10658;50.920;12.238;2023-03-07T00:38:44;21.08;;;12.27;;
21000;SDS011;10658;50.920;12.238;2023-03-07T00:42:46;22.15;;;11.02;;
21000;SDS011;10658;50.920;12.238;2023-03-07T00:46:47;17.90;;;10.00;;
21000;SDS011;10658;50.920;12.238;2023-03-07T00:50:49;25.92;;;12.63;;
21000;SDS011;10658;50.920;12.238;2023-03-07T00:54:51;21.17;;;10.50;;
21000;SDS011;10658;50.920;12.238;2023-03-07T00:58:53;22.38;;;11.57;;
21000;SDS011;10658;50.920;12.238;2023-03-07T01:02:54;19.73;;;10.15;;
21000;SDS011;10658;50.920;12.238;2023-03-07T01:06:58;20.77;;;10.75;;
21000;SDS011;10658;50.920;12.238;2023-03-07T01:11:21;27.10;;;12.93;;
21000;SDS011;10658;50.920;12.238;2023-03-07T01:15:22;24.15;;;11.98;;
21000;SDS011;10658;50.920;12.238;2023-03-07T01:19:23;19.73;;;10.63;;
21000;SDS011;10658;50.920;12.238;2023-03-07T01:23:26;23.27;;;11.63;;
21000;SDS011;10658;50.920;12.238;2023-03-07T01:27:27;24.20;;;12.70;;
21000;SDS011;10658;50.920;12.238;2023-03-07T01:31:29;21.30;;;11.30;;
21000;SDS011;10658;50.920;12.238;2023-03-07T01:35:37;16.08;;;8.57;;
21000;SDS011;10658;50.920;12.238;2023-03-07T01:39:38;18.02;;;9.20;;
21000;SDS011;10658;50.920;12.238;2023-03-07T01:43:42;16.50;;;8.73;;
21000;SDS011;10658;50.920;12.238;2023-03-07T01:47:48;25.35;;;11.68;;
21000;SDS011;10658;50.920;12.238;2023-03-07T01:51:58;24.38;;;12.63;;
21000;SDS011;10658;50.920;12.238;2023-03-07T01:56:17;18.98;;;10.55;;
21000;SDS011;10658;50.920;12.238;2023-03-07T02:00:19;22.50;;;11.55;;
21000;SDS011;10658;50.920;12.238;2023-03-07T02:04:30;22.27;;;10.52;;
21000;SDS011;10658;50.920;12.238;2023-03-07T02:08:40;21.92;;;11.30;;
21000;SDS011;10658;50.920;12.238;2023-03-07T02:12:43;20.55;;;10.43;;
21000;SDS011;10658;50.920;12.238;2023-03-07T02:16:45;18.13;;;9.57;;
21000;SDS011;10658;50.920;12.238;2023-03-07T02:25:04;18.75;;;9.65;;
21000;SDS011;10658;50.920;12.238;2023-03-07T02:29:15;19.52;;;10.32;;
21000;SDS011;10658;50.920;12.238;2023-03-07T02:33:19;17.60;;;10.40;;
21000;SDS011;10658;50.920;12.238;2023-03-07T02:37:46;17.42;;;9.05;;
21000;SDS011;10658;50.920;12.238;2023-03-07T02:41:52;17.52;;;7.93;;
21000;SDS011;10658;50.920;12.238;2023-03-07T02:46:03;18.30;;;9.57;;
21000;SDS011;10658;50.920;12.238;2023-03-07T02:50:05;20.63;;;9.95;;
21000;SDS011;10658;50.920;12.238;2023-03-07T02:54:08;17.38;;;9.32;;
21000;SDS011;10658;50.920;12.238;2023-03-07T02:58:10;17.15;;;8.98;;
21000;SDS011;10658;50.920;12.238;2023-03-07T03:02:12;18.20;;;10.30;;
21000;SDS011;10658;50.920;12.238;2023-03-07T03:06:14;16.85;;;9.45;;
21000;SDS011;10658;50.920;12.238;2023-03-07T03:10:16;18.63;;;9.32;;
21000;SDS011;10658;50.920;12.238;2023-03-07T03:14:17;13.35;;;7.00;;
21000;SDS011;10658;50.920;12.238;2023-03-07T03:18:18;20.35;;;7.75;;
21000;SDS011;10658;50.920;12.238;2023-03-07T03:22:19;16.92;;;8.52;;
21000;SDS011;10658;50.920;12.238;2023-03-07T03:26:22;20.80;;;9.63;;
21000;SDS011;10658;50.920;12.238;2023-03-07T03:30:23;18.63;;;8.68;;
21000;SDS011;10658;50.920;12.238;2023-03-07T03:34:27;21.00;;;10.45;;
21000;SDS011;10658;50.920;12.238;2023-03-07T03:38:29;18.10;;;10.55;;
21000;SDS011;10658;50.920;12.238;2023-03-07T03:42:33;16.80;;;8.27;;
21000;SDS011;10658;50.920;12.238;2023-03-07T03:46:36;17.33;;;8.80;;
21000;SDS011;10658;50.920;12.238;2023-03-07T03:51:13;18.98;;;9.70;;
21000;SDS011;10658;50.920;12.238;2023-03-07T03:55:15;13.73;;;7.55;;
21000;SDS011;10658;50.920;12.238;2023-03-07T03:59:17;15.95;;;7.55;;
21000;SDS011;10658;50.920;12.238;2023-03-07T04:03:19;14.90;;;7.22;;
21000;SDS011;10658;50.920;12.238;2023-03-07T04:07:20;19.30;;;9.75;;
21000;SDS011;10658;50.920;12.238;2023-03-07T04:11:23;18.73;;;9.15;;
21000;SDS011;10658;50.920;12.238;2023-03-07T04:15:24;14.38;;;6.88;;
21000;SDS011;10658;50.920;12.238;2023-03-07T04:19:25;14.38;;;8.07;;
21000;SDS011;10658;50.920;12.238;2023-03-07T04:23:28;16.30;;;8.77;;
21000;SDS011;10658;50.920;12.238;2023-03-07T04:27:30;15.65;;;7.70;;
21000;SDS011;10658;50.920;12.238;2023-03-07T04:31:35;14.68;;;7.43;;
21000;SDS011;10658;50.920;12.238;2023-03-07T04:35:41;12.05;;;6.07;;
21000;SDS011;10658;50.920;12.238;2023-03-07T04:39:42;12.35;;;7.20;;
21000;SDS011;10658;50.920;12.238;2023-03-07T04:43:48;18.45;;;8.95;;
21000;SDS011;10658;50.920;12.238;2023-03-07T04:47:56;13.02;;;6.55;;
21000;SDS011;10658;50.920;12.238;2023-03-07T04:52:01;17.00;;;7.68;;
21000;SDS011;10658;50.920;12.238;2023-03-07T04:56:04;19.75;;;8.98;;
21000;SDS011;10658;50.920;12.238;2023-03-07T05:00:16;18.60;;;9.23;;
21000;SDS011;10658;50.920;12.238;2023-03-07T05:04:19;15.57;;;8.18;;
21000;SDS011;10658;50.920;12.238;2023-03-07T05:08:21;17.67;;;7.72;;
21000;SDS011;10658;50.920;12.238;2023-03-07T05:12:25;15.85;;;7.47;;
21000;SDS011;10658;50.920;12.238;2023-03-07T05:16:49;10.65;;;5.90;;
21000;SDS011;10658;50.920;12.238;2023-03-07T05:20:52;10.70;;;6.05;;
21000;SDS011;10658;50.920;12.238;2023-03-07T05:24:53;9.73;;;5.50;;
21000;SDS011;10658;50.920;12.238;2023-03-07T05:33:54;10.88;;;5.10;;
21000;SDS011;10658;50.920;12.238;2023-03-07T05:37:55;11.75;;;6.05;;
21000;SDS011;10658;50.920;12.238;2023-03-07T05:41:57;14.10;;;6.25;;
21000;SDS011;10658;50.920;12.238;2023-03-07T05:45:59;11.57;;;6.43;;
21000;SDS011;10658;50.920;12.238;2023-03-07T05:50:01;10.98;;;6.32;;
21000;SDS011;10658;50.920;12.238;2023-03-07T05:54:03;14.23;;;7.13;;
21000;SDS011;10658;50.920;12.238;2023-03-07T05:58:05;13.50;;;7.20;;
21000;SDS011;10658;50.920;12.238;2023-03-07T06:02:06;11.95;;;5.93;;
21000;SDS011;10658;50.920;12.238;2023-03-07T06:06:08;14.45;;;7.75;;
21000;SDS011;10658;50.920;12.238;2023-03-07T06:10:13;9.25;;;5.68;;
21000;SDS011;10658;50.920;12.238;2023-03-07T06:14:15;11.18;;;5.90;;
21000;SDS011;10658;50.920;12.238;2023-03-07T06:18:17;11.07;;;6.47;;
21000;SDS011;10658;50.920;12.238;2023-03-07T06:22:18;12.73;;;6.05;;
21000;SDS011;10658;50.920;12.238;2023-03-07T06:26:21;12.75;;;7.28;;
21000;SDS011;10658;50.920;12.238;2023-03-07T06:30:26;12.90;;;6.38;;
21000;SDS011;10658;50.920;12.238;2023-03-07T06:34:28;15.70;;;7.25;;
21000;SDS011;10658;50.920;12.238;2023-03-07T06:38:30;14.90;;;8.23;;
21000;SDS011;10658;50.920;12.238;2023-03-07T06:42:32;14.70;;;6.93;;
21000;SDS011;10658;50.920;12.238;2023-03-07T06:46:33;12.35;;;6.38;;
21000;SDS011;10658;50.920;12.238;2023-03-07T06:50:41;9.70;;;6.07;;
21000;SDS011;10658;50.920;12.238;2023-03-07T06:54:47;12.02;;;7.15;;
21000;SDS011;10658;50.920;12.238;2023-03-07T06:58:58;15.65;;;7.03;;
21000;SDS011;10658;50.920;12.238;2023-03-07T07:14:30;9.55;;;4.50;;
21000;SDS011;10658;50.920;12.238;2023-03-07T07:18:57;10.60;;;5.55;;
21000;SDS011;10658;50.920;12.238;2023-03-07T07:23:22;8.77;;;4.38;;
21000;SDS011;10658;50.920;12.238;2023-03-07T07:32:59;6.38;;;3.10;;
21000;SDS011;10658;50.920;12.238;2023-03-07T07:37:31;7.25;;;3.72;;
21000;SDS011;10658;50.920;12.238;2023-03-07T07:41:33;8.02;;;4.78;;
21000;SDS011;10658;50.920;12.238;2023-03-07T07:46:16;6.55;;;3.75;;
21000;SDS011;10658;50.920;12.238;2023-03-07T07:50:22;6.00;;;3.97;;
21000;SDS011;10658;50.920;12.238;2023-03-07T07:55:00;5.38;;;3.30;;
21000;SDS011;10658;50.920;12.238;2023-03-07T07:59:52;7.93;;;3.67;;
21000;SDS011;10658;50.920;12.238;2023-03-07T08:03:54;4.70;;;3.45;;
21000;SDS011;10658;50.920;12.238;2023-03-07T08:14:22;6.63;;;3.95;;
21000;SDS011;10658;50.920;12.238;2023-03-07T08:18:54;4.43;;;3.47;;
21000;SDS011;10658;50.920;12.238;2023-03-07T08:23:08;6.82;;;3.88;;
21000;SDS011;10658;50.920;12.238;2023-03-07T08:42:20;9.90;;;4.00;;
21000;SDS011;10658;50.920;12.238;2023-03-07T08:52:37;7.05;;;4.82;;
21000;SDS011;10658;50.920;12.238;2023-03-07T08:57:09;6.28;;;3.95;;
21000;SDS011;10658;50.920;12.238;2023-03-07T09:01:13;10.77;;;6.03;;
21000;SDS011;10658;50.920;12.238;2023-03-07T09:06:02;7.10;;;4.78;;
21000;SDS011;10658;50.920;12.238;2023-03-07T09:16:31;9.07;;;5.45;;
21000;SDS011;10658;50.920;12.238;2023-03-07T09:20:32;6.50;;;4.30;;
21000;SDS011;10658;50.920;12.238;2023-03-07T09:24:36;7.55;;;3.53;;
21000;SDS011;10658;50.920;12.238;2023-03-07T09:28:38;6.85;;;4.68;;
21000;SDS011;10658;50.920;12.238;2023-03-07T09:32:59;10.75;;;5.00;;
21000;SDS011;10658;50.920;12.238;2023-03-07T09:37:00;10.00;;;5.47;;
21000;SDS011;10658;50.920;12.238;2023-03-07T09:41:06;9.55;;;5.10;;
21000;SDS011;10658;50.920;12.238;2023-03-07T09:49:45;11.63;;;4.90;;
21000;SDS011;10658;50.920;12.238;2023-03-07T09:53:53;8.07;;;4.72;;
21000;SDS011;10658;50.920;12.238;2023-03-07T09:58:05;7.97;;;5.38;;
21000;SDS011;10658;50.920;12.238;2023-03-07T10:06:42;8.32;;;5.25;;
21000;SDS011;10658;50.920;12.238;2023-03-07T10:19:50;7.30;;;5.28;;
21000;SDS011;10658;50.920;12.238;2023-03-07T10:28:29;7.75;;;5.43;;
21000;SDS011;10658;50.920;12.238;2023-03-07T10:32:36;8.60;;;5.28;;
21000;SDS011;10658;50.920;12.238;2023-03-07T10:37:01;5.80;;;3.90;;
21000;SDS011;10658;50.920;12.238;2023-03-07T10:41:12;7.05;;;4.20;;
21000;SDS011;10658;50.920;12.238;2023-03-07T10:45:17;6.50;;;3.35;;
21000;SDS011;10658;50.920;12.238;2023-03-07T10:49:24;6.22;;;3.33;;
21000;SDS011;10658;50.920;12.238;2023-03-07T10:53:30;8.00;;;4.18;;
21000;SDS011;10658;50.920;12.238;2023-03-07T10:57:34;7.55;;;4.25;;
21000;SDS011;10658;50.920;12.238;2023-03-07T11:01:37;7.25;;;4.07;;
21000;SDS011;10658;50.920;12.238;2023-03-07T11:05:52;7.18;;;4.53;;
21000;SDS011;10658;50.920;12.238;2023-03-07T11:09:54;9.23;;;4.75;;
21000;SDS011;10658;50.920;12.238;2023-03-07T11:18:58;6.95;;;3.70;;
21000;SDS011;10658;50.920;12.238;2023-03-07T11:22:44;8.07;;;4.05;;
21000;SDS011;10658;50.920;12.238;2023-03-07T11:26:46;6.40;;;3.30;;
21000;SDS011;10658;50.920;12.238;2023-03-07T11:35:19;9.40;;;5.35;;
21000;SDS011;10658;50.920;12.238;2023-03-07T11:39:40;6.45;;;4.82;;
21000;SDS011;10658;50.920;12.238;2023-03-07T11:53:38;7.32;;;4.07;;
21000;SDS011;10658;50.920;12.238;2023-03-07T12:02:25;8.88;;;4.47;;
21000;SDS011;10658;50.920;12.238;2023-03-07T12:24:45;4.40;;;2.75;;
21000;SDS011;10658;50.920;12.238;2023-03-07T12:33:34;4.95;;;2.95;;
21000;SDS011;10658;50.920;12.238;2023-03-07T12:38:01;4.43;;;1.77;;
21000;SDS011;10658;50.920;12.238;2023-03-07T12:42:37;6.63;;;3.75;;
21000;SDS011;10658;50.920;12.238;2023-03-07T12:46:51;9.15;;;4.00;;
21000;SDS011;10658;50.920;12.238;2023-03-07T12:51:32;7.72;;;5.13;;
21000;SDS011;10658;50.920;12.238;2023-03-07T12:55:43;6.00;;;3.78;;
21000;SDS011;10658;50.920;12.238;2023-03-07T12:59:56;6.18;;;3.95;;
21000;SDS011;10658;50.920;12.238;2023-03-07T13:08:34;6.88;;;4.18;;
21000;SDS011;10658;50.920;12.238;2023-03-07T13:12:37;8.50;;;5.25;;
21000;SDS011;10658;50.920;12.238;2023-03-07T13:16:40;6.53;;;3.47;;
21000;SDS011;10658;50.920;12.238;2023-03-07T13:20:46;8.90;;;3.97;;
21000;SDS011;10658;50.920;12.238;2023-03-07T13:38:47;5.57;;;3.22;;
21000;SDS011;10658;50.920;12.238;2023-03-07T13:42:49;9.10;;;4.72;;
21000;SDS011;10658;50.920;12.238;2023-03-07T13:47:14;7.82;;;4.32;;
21000;SDS011;10658;50.920;12.238;2023-03-07T13:51:36;5.95;;;2.88;;
21000;SDS011;10658;50.920;12.238;2023-03-07T13:55:41;7.20;;;4.05;;
21000;SDS011;10658;50.920;12.238;2023-03-07T13:59:54;7.53;;;3.97;;
21000;SDS011;10658;50.920;12.238;2023-03-07T14:04:03;6.82;;;4.32;;
21000;SDS011;10658;50.920;12.238;2023-03-07T14:08:46;6.10;;;3.53;;
21000;SDS011;10658;50.920;12.238;2023-03-07T14:13:05;5.10;;;3.20;;
21000;SDS011;10658;50.920;12.238;2023-03-07T14:17:39;7.50;;;3.67;;
21000;SDS011;10658;50.920;12.238;2023-03-07T14:28:46;3.80;;;2.75;;
21000;SDS011;10658;50.920;12.238;2023-03-07T14:37:47;7.00;;;3.70;;
21000;SDS011;10658;50.920;12.238;2023-03-07T14:51:20;8.48;;;4.18;;
21000;SDS011;10658;50.920;12.238;2023-03-07T14:56:19;6.22;;;3.85;;
21000;SDS011;10658;50.920;12.238;2023-03-07T15:00:37;5.88;;;3.53;;
21000;SDS011;10658;50.920;12.238;2023-03-07T15:05:03;4.30;;;2.83;;
21000;SDS011;10658;50.920;12.238;2023-03-07T15:09:20;8.63;;;4.35;;
21000;SDS011;10658;50.920;12.238;2023-03-07T15:13:29;8.73;;;4.15;;
21000;SDS011;10658;50.920;12.238;2023-03-07T15:17:37;7.47;;;4.45;;
21000;SDS011;10658;50.920;12.238;2023-03-07T15:21:45;6.60;;;3.63;;
21000;SDS011;10658;50.920;12.238;2023-03-07T15:26:04;6.18;;;3.92;;
21000;SDS011;10658;50.920;12.238;2023-03-07T15:30:23;8.02;;;3.65;;
21000;SDS011;10658;50.920;12.238;2023-03-07T15:34:30;8.48;;;4.28;;
21000;SDS011;10658;50.920;12.238;2023-03-07T15:43:42;6.78;;;3.80;;
21000;SDS011;10658;50.920;12.238;2023-03-07T15:47:49;7.57;;;3.97;;
21000;SDS011;10658;50.920;12.238;2023-03-07T15:51:58;6.28;;;3.90;;
21000;SDS011;10658;50.920;12.238;2023-03-07T16:10:48;7.97;;;4.40;;
21000;SDS011;10658;50.920;12.238;2023-03-07T16:15:22;7.82;;;4.75;;
21000;SDS011;10658;50.920;12.238;2023-03-07T16:19:23;7.68;;;3.88;;
21000;SDS011;10658;50.920;12.238;2023-03-07T16:23:24;8.52;;;5.47;;
21000;SDS011;10658;50.920;12.238;2023-03-07T16:27:52;7.72;;;4.25;;
21000;SDS011;10658;50.920;12.238;2023-03-07T16:32:01;12.07;;;5.97;;
21000;SDS011;10658;50.920;12.238;2023-03-07T16:36:49;9.23;;;4.97;;
21000;SDS011;10658;50.920;12.238;2023-03-07T16:41:15;8.35;;;4.57;;
21000;SDS011;10658;50.920;12.238;2023-03-07T16:45:28;7.82;;;4.10;;
21000;SDS011;10658;50.920;12.238;2023-03-07T16:49:53;12.20;;;5.97;;
21000;SDS011;10658;50.920;12.238;2023-03-07T16:54:29;12.52;;;7.43;;
21000;SDS011;10658;50.920;12.238;2023-03-07T17:04:06;9.48;;;5.45;;
21000;SDS011;10658;50.920;12.238;2023-03-07T17:08:48;7.13;;;4.95;;
21000;SDS011;10658;50.920;12.238;2023-03-07T17:13:13;8.60;;;5.28;;
21000;SDS011;10658;50.920;12.238;2023-03-07T17:17:36;6.05;;;3.80;;
21000;SDS011;10658;50.920;12.238;2023-03-07T17:22:07;10.20;;;4.50;;
21000;SDS011;10658;50.920;12.238;2023-03-07T17:30:55;7.13;;;4.10;;
21000;SDS011;10658;50.920;12.238;2023-03-07T17:35:16;8.27;;;3.88;;
21000;SDS011;10658;50.920;12.238;2023-03-07T17:39:53;11.02;;;5.03;;
21000;SDS011;10658;50.920;12.238;2023-03-07T17:44:21;7.10;;;4.20;;
21000;SDS011;10658;50.920;12.238;2023-03-07T17:48:41;8.18;;;5.20;;
21000;SDS011;10658;50.920;12.238;2023-03-07T17:52:59;8.75;;;4.75;;
21000;SDS011;10658;50.920;12.238;2023-03-07T17:57:05;6.72;;;4.45;;
21000;SDS011;10658;50.920;12.238;2023-03-07T18:01:27;7.10;;;3.88;;
21000;SDS011;10658;50.920;12.238;2023-03-07T18:06:01;9.55;;;4.78;;
21000;SDS011;10658;50.920;12.238;2023-03-07T18:11:05;9.82;;;5.80;;
21000;SDS011;10658;50.920;12.238;2023-03-07T18:24:56;7.82;;;4.93;;
21000;SDS011;10658;50.920;12.238;2023-03-07T18:33:49;9.35;;;5.97;;
21000;SDS011;10658;50.920;12.238;2023-03-07T18:38:20;10.32;;;5.90;;
21000;SDS011;10658;50.920;12.238;2023-03-07T18:42:43;8.20;;;4.28;;
21000;SDS011;10658;50.920;12.238;2023-03-07T18:47:07;9.70;;;4.90;;
21000;SDS011;10658;50.920;12.238;2023-03-07T18:51:26;8.68;;;4.50;;
21000;SDS011;10658;50.920;12.238;2023-03-07T18:55:48;10.57;;;5.57;;
21000;SDS011;10658;50.920;12.238;2023-03-07T19:00:14;11.15;;;5.72;;
21000;SDS011;10658;50.920;12.238;2023-03-07T19:04:34;12.55;;;6.80;;
21000;SDS011;10658;50.920;12.238;2023-03-07T19:08:54;16.33;;;8.32;;
21000;SDS011;10658;50.920;12.238;2023-03-07T19:13:14;16.40;;;7.20;;
21000;SDS011;10658;50.920;12.238;2023-03-07T19:17:36;10.32;;;5.43;;
21000;SDS011;10658;50.920;12.238;2023-03-07T19:21:55;10.70;;;5.13;;
21000;SDS011;10658;50.920;12.238;2023-03-07T19:26:14;7.20;;;4.15;;
21000;SDS011;10658;50.920;12.238;2023-03-07T19:31:10;7.07;;;3.75;;
21000;SDS011;10658;50.920;12.238;2023-03-07T19:35:45;10.18;;;4.38;;
21000;SDS011;10658;50.920;12.238;2023-03-07T19:39:55;6.60;;;3.90;;
21000;SDS011;10658;50.920;12.238;2023-03-07T19:44:33;5.53;;;3.40;;
21000;SDS011;10658;50.920;12.238;2023-03-07T19:48:34;4.28;;;3.40;;
21000;SDS011;10658;50.920;12.238;2023-03-07T19:52:35;5.25;;;3.40;;
21000;SDS011;10658;50.920;12.238;2023-03-07T19:56:39;4.65;;;3.47;;
21000;SDS011;10658;50.920;12.238;2023-03-07T20:00:52;9.93;;;5.40;;
21000;SDS011;10658;50.920;12.238;2023-03-07T20:05:10;4.95;;;3.35;;
21000;SDS011;10658;50.920;12.238;2023-03-07T20:09:45;3.63;;;2.80;;
21000;SDS011;10658;50.920;12.238;2023-03-07T20:13:46;4.05;;;2.83;;
21000;SDS011;10658;50.920;12.238;2023-03-07T20:17:47;4.13;;;3.00;;
21000;SDS011;10658;50.920;12.238;2023-03-07T20:21:49;5.55;;;3.42;;
21000;SDS011;10658;50.920;12.238;2023-03-07T20:25:51;6.95;;;4.57;;
21000;SDS011;10658;50.920;12.238;2023-03-07T20:29:57;4.10;;;3.47;;
21000;SDS011;10658;50.920;12.238;2023-03-07T20:33:58;6.05;;;3.28;;
21000;SDS011;10658;50.920;12.238;2023-03-07T20:37:59;7.97;;;4.78;;
21000;SDS011;10658;50.920;12.238;2023-03-07T20:42:02;6.97;;;4.50;;
21000;SDS011;10658;50.920;12.238;2023-03-07T20:46:09;5.75;;;3.70;;
21000;SDS011;10658;50.920;12.238;2023-03-07T20:50:13;15.32;;;8.65;;
21000;SDS011;10658;50.920;12.238;2023-03-07T20:54:15;6.45;;;4.72;;
21000;SDS011;10658;50.920;12.238;2023-03-07T20:58:17;4.60;;;3.40;;
21000;SDS011;10658;50.920;12.238;2023-03-07T21:02:19;6.57;;;4.10;;
21000;SDS011;10658;50.920;12.238;2023-03-07T21:06:20;3.58;;;2.80;;
21000;SDS011;10658;50.920;12.238;2023-03-07T21:10:22;4.43;;;3.72;;
21000;SDS011;10658;50.920;12.238;2023-03-07T21:14:25;3.38;;;2.60;;
21000;SDS011;10658;50.920;12.238;2023-03-07T21:18:26;4.32;;;3.15;;
21000;SDS011;10658;50.920;12.238;2023-03-07T21:22:28;4.55;;;2.85;;
21000;SDS011;10658;50.920;12.238;2023-03-07T21:26:30;4.88;;;3.58;;
21000;SDS011;10658;50.920;12.238;2023-03-07T21:30:32;4.32;;;2.60;;
21000;SDS011;10658;50.920;12.238;2023-03-07T21:34:33;4.60;;;3.05;;
21000;SDS011;10658;50.920;12.238;2023-03-07T21:38:35;5.60;;;2.92;;
21000;SDS011;10658;50.920;12.238;2023-03-07T21:42:39;4.57;;;3.10;;
21000;SDS011;10658;50.920;12.238;2023-03-07T21:46:39;3.03;;;2.35;;
21000;SDS011;10658;50.920;12.238;2023-03-07T21:50:41;5.68;;;3.03;;
21000;SDS011;10658;50.920;12.238;2023-03-07T21:54:44;2.70;;;2.08;;
21000;SDS011;10658;50.920;12.238;2023-03-07T21:58:46;4.68;;;2.92;;
21000;SDS011;10658;50.920;12.238;2023-03-07T22:02:48;5.38;;;2.75;;
21000;SDS011;10658;50.920;12.238;2023-03-07T22:06:48;3.47;;;2.53;;
21000;SDS011;10658;50.920;12.238;2023-03-07T22:10:54;3.72;;;3.05;;
21000;SDS011;10658;50.920;12.238;2023-03-07T22:14:56;3.10;;;2.22;;
21000;SDS011;10658;50.920;12.238;2023-03-07T22:18:57;8.48;;;3.28;;
21000;SDS011;10658;50.920;12.238;2023-03-07T22:23:18;6.75;;;4.18;;
21000;SDS011;10658;50.920;12.238;2023-03-07T22:27:19;5.57;;;3.85;;
21000;SDS011;10658;50.920;12.238;2023-03-07T22:31:20;9.45;;;4.45;;
21000;SDS011;10658;50.920;12.238;2023-03-07T22:35:22;5.50;;;3.60;;
21000;SDS011;10658;50.920;12.238;2023-03-07T22:39:23;6.13;;;3.95;;
21000;SDS011;10658;50.920;12.238;2023-03-07T22:43:24;5.75;;;3.47;;
21000;SDS011;10658;50.920;12.238;2023-03-07T22:47:26;4.18;;;2.72;;
21000;SDS011;10658;50.920;12.238;2023-03-07T22:51:29;5.72;;;4.13;;
21000;SDS011;10658;50.920;12.238;2023-03-07T22:55:30;6.03;;;3.78;;
21000;SDS011;10658;50.920;12.238;2023-03-07T22:59:31;3.45;;;2.38;;
21000;SDS011;10658;50.920;12.238;2023-03-07T23:03:32;3.90;;;2.80;;
21000;SDS011;10658;50.920;12.238;2023-03-07T23:07:33;4.22;;;2.58;;
21000;SDS011;10658;50.920;12.238;2023-03-07T23:11:34;4.47;;;2.30;;
21000;SDS011;10658;50.920;12.238;2023-03-07T23:15:37;3.97;;;2.55;;
21000;SDS011;10658;50.920;12.238;2023-03-07T23:19:40;3.88;;;2.10;;
21000;SDS011;10658;50.920;12.238;2023-03-07T23:23:41;3.42;;;2.40;;
21000;SDS011;10658;50.920;12.238;2023-03-07T23:27:43;3.75;;;2.08;;
21000;SDS011;10658;50.920;12.238;2023-03-07T23:31:45;3.05;;;1.60;;
21000;SDS011;10658;50.920;12.238;2023-03-07T23:35:46;3.03;;;2.10;;
21000;SDS011;10658;50.920;12.238;2023-03-07T23:39:47;3.10;;;2.10;;
21000;SDS011;10658;50.920;12.238;2023-03-07T23:43:55;2.30;;;1.77;;
21000;SDS011;10658;50.920;12.238;2023-03-07T23:47:58;3.53;;;2.10;;
21000;SDS011;10658;50.920;12.238;2023-03-07T23:51:59;3.80;;;2.35;;
21000;SDS011;10658;50.920;12.238;2023-03-07T23:56:05;2.83;;;2.13;;
